createdAt,value
2019-01-26T00:00:18.381Z,55.10
2019-01-26T00:02:49.672Z,56.13
2019-01-26T00:05:19.421Z,48.90
2019-01-26T00:07:49.176Z,84.23
2019-01-26T00:10:18.865Z,78.83
2019-01-26T00:12:48.540Z,54.20
2019-01-26T00:15:18.374Z,77.50
2019-01-26T00:17:48.127Z,88.00
2019-01-26T00:20:17.884Z,84.47
2019-01-26T00:22:47.566Z,86.90
2019-01-26T00:25:17.247Z,93.33
2019-01-26T00:27:46.925Z,85.20
2019-01-26T00:30:16.931Z,68.27
2019-01-26T00:32:46.616Z,86.60
2019-01-26T00:35:17.344Z,78.57
2019-01-26T00:37:47.085Z,93.87
2019-01-26T00:40:17.114Z,100.50
2019-01-26T00:42:46.787Z,105.57
2019-01-26T00:45:16.724Z,84.87
2019-01-26T00:47:46.400Z,102.47
2019-01-26T00:50:16.330Z,125.62
2019-01-26T00:52:46.010Z,85.90
2019-01-26T00:55:15.685Z,95.73
2019-01-26T00:57:45.441Z,86.40
2019-01-26T01:00:15.801Z,89.07
2019-01-26T01:02:45.752Z,72.30
2019-01-26T01:05:15.798Z,87.72
2019-01-26T01:07:45.879Z,73.03
2019-01-26T01:10:16.060Z,86.57
2019-01-26T01:12:45.886Z,103.27
2019-01-26T01:15:18.043Z,88.07
2019-01-26T01:17:47.792Z,87.23
2019-01-26T01:20:18.226Z,102.07
2019-01-26T01:22:47.981Z,96.80
2019-01-26T01:25:17.875Z,83.67
2019-01-26T01:27:47.524Z,89.20
2019-01-26T01:30:19.499Z,80.87
2019-01-26T01:32:49.795Z,77.57
2019-01-26T01:35:19.725Z,108.27
2019-01-26T01:37:49.490Z,101.80
2019-01-26T01:40:19.746Z,97.63
2019-01-26T01:42:49.512Z,96.57
2019-01-26T01:45:19.728Z,90.92
2019-01-26T01:47:49.474Z,120.07
2019-01-26T01:50:19.426Z,105.80
2019-01-26T01:52:49.190Z,94.60
2019-01-26T01:55:18.857Z,96.53
2019-01-26T01:57:48.536Z,97.27
2019-01-26T02:00:20.405Z,84.20
2019-01-26T02:02:50.487Z,80.50
2019-01-26T02:05:20.189Z,93.12
2019-01-26T02:07:50.068Z,102.17
2019-01-26T02:10:21.290Z,91.10
2019-01-26T02:12:51.113Z,94.30
2019-01-26T02:15:20.951Z,82.47
2019-01-26T02:17:50.713Z,96.63
2019-01-26T02:20:22.286Z,92.30
2019-01-26T02:22:51.958Z,72.30
2019-01-26T02:25:21.772Z,89.25
2019-01-26T02:27:51.444Z,82.80
2019-01-26T02:30:23.370Z,83.43
2019-01-26T02:32:54.684Z,86.50
2019-01-26T02:35:24.440Z,80.17
2019-01-26T02:37:54.249Z,78.97
2019-01-26T02:40:23.932Z,106.27
2019-01-26T02:42:53.589Z,99.90
2019-01-26T02:45:23.269Z,90.67
2019-01-26T02:47:53.986Z,91.20
2019-01-26T02:50:23.662Z,107.97
2019-01-26T02:52:53.348Z,104.20
2019-01-26T02:55:23.019Z,107.90
2019-01-26T02:57:52.708Z,106.47
2019-01-26T03:00:23.554Z,91.27
2019-01-26T03:02:53.312Z,90.63
2019-01-26T03:05:22.998Z,91.25
2019-01-26T03:07:52.687Z,75.63
2019-01-26T03:10:23.316Z,78.85
2019-01-26T03:12:53.069Z,99.23
2019-01-26T03:15:24.034Z,98.93
2019-01-26T03:17:53.714Z,89.70
2019-01-26T03:20:23.640Z,84.95
2019-01-26T03:22:53.326Z,75.03
2019-01-26T03:25:23.034Z,71.63
2019-01-26T03:27:52.753Z,81.23
2019-01-26T03:30:24.519Z,74.37
2019-01-26T03:32:54.198Z,80.40
2019-01-26T03:35:23.962Z,63.10
2019-01-26T03:37:53.638Z,53.20
2019-01-26T03:40:23.819Z,74.37
2019-01-26T03:42:53.488Z,75.47
2019-01-26T03:45:23.483Z,72.43
2019-01-26T03:47:53.153Z,72.37
2019-01-26T03:50:22.905Z,86.63
2019-01-26T03:52:52.682Z,71.07
2019-01-26T03:55:22.710Z,71.37
2019-01-26T03:57:52.402Z,75.47
2019-01-26T04:00:24.503Z,67.17
2019-01-26T04:02:54.936Z,69.57
2019-01-26T04:05:24.669Z,76.12
2019-01-26T04:07:54.510Z,68.55
2019-01-26T04:10:24.273Z,75.37
2019-01-26T04:12:54.312Z,64.57
2019-01-26T04:15:24.105Z,78.17
2019-01-26T04:17:53.857Z,68.77
2019-01-26T04:20:23.669Z,67.50
2019-01-26T04:22:53.367Z,66.03
2019-01-26T04:25:23.182Z,73.53
2019-01-26T04:27:52.870Z,57.40
2019-01-26T04:30:23.286Z,64.70
2019-01-26T04:32:52.966Z,68.67
2019-01-26T04:35:22.663Z,64.97
2019-01-26T04:37:52.559Z,72.33
2019-01-26T04:40:23.217Z,71.53
2019-01-26T04:42:52.906Z,64.43
2019-01-26T04:45:24.073Z,75.27
2019-01-26T04:47:53.833Z,71.00
2019-01-26T04:50:23.558Z,68.30
2019-01-26T04:52:53.383Z,70.23
2019-01-26T04:55:23.281Z,62.93
2019-01-26T04:57:53.061Z,77.30
2019-01-26T05:00:31.025Z,65.77
2019-01-26T05:03:06.115Z,57.27
2019-01-26T05:05:36.065Z,76.03
2019-01-26T05:08:05.843Z,69.97
2019-01-26T05:10:35.522Z,83.50
2019-01-26T05:13:05.368Z,78.07
2019-01-26T05:15:35.065Z,70.33
2019-01-26T05:18:05.328Z,74.12
2019-01-26T05:20:35.001Z,76.70
2019-01-26T05:23:05.714Z,81.82
2019-01-26T05:25:35.464Z,90.80
2019-01-26T05:28:05.779Z,66.20
2019-01-26T05:30:35.541Z,73.97
2019-01-26T05:33:06.029Z,73.62
2019-01-26T05:35:37.908Z,75.43
2019-01-26T05:38:07.577Z,82.57
2019-01-26T05:40:37.272Z,70.97
2019-01-26T05:43:07.423Z,91.37
2019-01-26T05:45:37.344Z,76.83
2019-01-26T05:48:07.114Z,75.17
2019-01-26T05:50:36.804Z,72.50
2019-01-26T05:53:06.568Z,78.17
2019-01-26T05:55:36.264Z,70.47
2019-01-26T05:58:05.955Z,68.90
2019-01-26T06:00:36.540Z,69.10
2019-01-26T06:03:06.365Z,60.63
2019-01-26T06:05:36.064Z,62.93
2019-01-26T06:08:05.817Z,65.87
2019-01-26T06:10:35.791Z,59.57
2019-01-26T06:13:05.558Z,65.83
2019-01-26T06:15:35.324Z,53.13
2019-01-26T06:18:06.033Z,57.47
2019-01-26T06:20:35.716Z,55.30
2019-01-26T06:23:05.422Z,65.05
2019-01-26T06:25:35.107Z,49.53
2019-01-26T06:28:05.769Z,48.55
2019-01-26T06:30:35.524Z,57.90
2019-01-26T06:33:05.422Z,52.58
2019-01-26T06:35:36.401Z,48.97
2019-01-26T06:38:06.160Z,50.40
2019-01-26T06:40:35.838Z,58.83
2019-01-26T06:43:05.693Z,50.30
2019-01-26T06:45:35.381Z,50.40
2019-01-26T06:48:05.500Z,42.00
2019-01-26T06:50:35.194Z,42.57
2019-01-26T06:53:05.399Z,39.80
2019-01-26T06:55:35.492Z,54.63
2019-01-26T06:58:05.543Z,49.35
2019-01-26T07:00:35.369Z,49.00
2019-01-26T07:03:05.761Z,53.60
2019-01-26T07:05:58.314Z,41.30
2019-01-26T07:08:27.997Z,46.30
2019-01-26T07:10:57.665Z,41.37
2019-01-26T07:13:27.445Z,48.40
2019-01-26T07:15:59.187Z,42.83
2019-01-26T07:18:28.948Z,43.23
2019-01-26T07:20:58.772Z,50.47
2019-01-26T07:23:30.029Z,43.23
2019-01-26T07:25:59.805Z,43.77
2019-01-26T07:28:29.561Z,38.87
2019-01-26T07:30:59.228Z,44.23
2019-01-26T07:33:29.256Z,45.43
2019-01-26T07:35:58.923Z,43.60
2019-01-26T07:38:29.131Z,48.93
2019-01-26T07:40:58.870Z,50.07
2019-01-26T07:43:28.749Z,52.77
2019-01-26T07:45:58.548Z,51.27
2019-01-26T07:48:28.215Z,41.60
2019-01-26T07:50:57.980Z,42.30
2019-01-26T07:53:27.726Z,49.67
2019-01-26T07:55:57.405Z,44.57
2019-01-26T07:58:27.091Z,45.90
2019-01-26T08:00:57.129Z,43.90
2019-01-26T08:03:26.813Z,37.40
2019-01-26T08:05:56.569Z,48.70
2019-01-26T08:08:26.252Z,45.80
2019-01-26T08:10:55.924Z,41.00
2019-01-26T08:13:25.597Z,40.30
2019-01-26T08:15:55.264Z,44.27
2019-01-26T08:18:24.961Z,41.93
2019-01-26T08:20:54.868Z,47.13
2019-01-26T08:23:24.544Z,38.37
2019-01-26T08:25:54.236Z,41.37
2019-01-26T08:28:23.913Z,38.57
2019-01-26T08:30:53.592Z,39.13
2019-01-26T08:33:23.292Z,40.80
2019-01-26T08:35:52.967Z,35.83
2019-01-26T08:38:22.654Z,38.30
2019-01-26T08:40:52.481Z,41.93
2019-01-26T08:43:23.141Z,39.03
2019-01-26T08:45:52.820Z,40.17
2019-01-26T08:48:22.509Z,39.38
2019-01-26T08:50:52.200Z,44.67
2019-01-26T08:53:21.887Z,42.23
2019-01-26T08:58:41.551Z,40.47
2019-01-26T09:01:11.249Z,40.90
2019-01-26T09:04:03.899Z,40.00
2019-01-26T09:06:41.621Z,44.87
2019-01-26T09:09:13.025Z,49.63
2019-01-26T09:11:42.800Z,46.60
2019-01-26T09:14:12.488Z,58.28
2019-01-26T09:16:42.342Z,49.73
2019-01-26T09:19:12.025Z,48.23
2019-01-26T09:21:41.720Z,57.37
2019-01-26T09:24:11.524Z,57.67
2019-01-26T09:26:41.205Z,48.13
2019-01-26T09:29:10.902Z,52.75
2019-01-26T09:31:40.575Z,56.07
2019-01-26T09:34:10.264Z,53.73
2019-01-26T09:36:40.125Z,54.73
2019-01-26T09:39:11.520Z,49.58
2019-01-26T09:41:41.277Z,57.67
2019-01-26T09:44:11.047Z,49.93
2019-01-26T09:46:40.728Z,52.40
2019-01-26T09:49:10.431Z,65.97
2019-01-26T09:51:40.184Z,53.63
2019-01-26T09:54:10.013Z,60.70
2019-01-26T09:56:40.042Z,58.97
2019-01-26T09:59:09.867Z,61.87
2019-01-26T10:01:39.551Z,57.93
2019-01-26T10:04:09.216Z,77.40
2019-01-26T10:06:39.494Z,57.93
2019-01-26T10:09:12.779Z,59.87
2019-01-26T10:11:42.544Z,61.07
2019-01-26T10:14:12.236Z,72.27
2019-01-26T10:16:42.038Z,56.87
2019-01-26T10:19:11.713Z,66.57
2019-01-26T10:21:41.685Z,61.08
2019-01-26T10:24:11.496Z,65.03
2019-01-26T10:26:41.264Z,54.73
2019-01-26T10:29:11.216Z,60.08
2019-01-26T10:31:41.812Z,58.07
2019-01-26T10:34:11.589Z,52.88
2019-01-26T10:36:57.440Z,54.03
2019-01-26T10:39:27.177Z,61.17
2019-01-26T10:42:21.673Z,54.13
2019-01-26T10:44:51.456Z,58.23
2019-01-26T10:47:21.137Z,62.20
2019-01-26T10:49:50.828Z,62.70
2019-01-26T10:52:20.508Z,69.42
2019-01-26T10:54:50.182Z,59.87
2019-01-26T10:57:19.871Z,58.20
2019-01-26T10:59:49.541Z,56.40
2019-01-26T11:02:19.308Z,60.63
2019-01-26T11:04:49.066Z,56.03
2019-01-26T11:07:18.745Z,49.00
2019-01-26T11:09:49.673Z,57.77
2019-01-26T11:12:20.478Z,51.60
2019-01-26T11:14:50.180Z,60.83
2019-01-26T11:17:19.856Z,55.40
2019-01-26T11:19:49.532Z,43.40
2019-01-26T11:22:19.240Z,41.20
2019-01-26T11:24:49.149Z,48.28
2019-01-26T11:27:18.842Z,43.20
2019-01-26T11:29:48.600Z,33.07
2019-01-26T11:32:18.284Z,36.15
2019-01-26T11:34:48.272Z,33.27
2019-01-26T11:37:17.937Z,33.83
2019-01-26T11:39:54.442Z,31.57
2019-01-26T11:42:24.119Z,31.45
2019-01-26T11:45:16.387Z,27.83
2019-01-26T11:47:46.414Z,25.23
2019-01-26T11:50:22.064Z,24.18
2019-01-26T11:52:51.736Z,24.80
2019-01-26T11:55:32.659Z,20.97
2019-01-26T11:58:02.335Z,23.97
2019-01-26T12:00:49.356Z,18.57
2019-01-26T12:03:26.392Z,17.37
2019-01-26T12:06:00.389Z,17.00
2019-01-26T12:08:30.080Z,18.03
2019-01-26T12:10:59.752Z,20.53
2019-01-26T12:13:29.435Z,15.40
2019-01-26T12:15:59.131Z,17.70
2019-01-26T12:18:28.802Z,18.47
2019-01-26T12:20:58.479Z,16.87
2019-01-26T12:23:28.169Z,19.73
2019-01-26T12:25:57.915Z,21.10
2019-01-26T12:28:27.596Z,23.23
2019-01-26T12:30:57.463Z,26.27
2019-01-26T12:36:20.856Z,24.70
2019-01-26T12:38:50.603Z,24.97
2019-01-26T12:41:20.348Z,24.17
2019-01-26T12:43:50.065Z,28.93
2019-01-26T12:46:25.111Z,27.87
2019-01-26T12:49:00.004Z,33.27
2019-01-26T12:51:29.678Z,32.00
2019-01-26T12:53:59.371Z,28.97
2019-01-26T12:56:29.123Z,31.27
2019-01-26T12:58:59.073Z,29.73
2019-01-26T13:01:28.832Z,32.63
2019-01-26T13:03:58.579Z,31.73
2019-01-26T13:06:28.316Z,26.77
2019-01-26T13:11:42.903Z,29.30
2019-01-26T13:14:12.777Z,28.27
2019-01-26T13:16:42.470Z,30.90
2019-01-26T13:19:12.535Z,31.20
2019-01-26T13:21:42.270Z,26.67
2019-01-26T13:24:12.043Z,29.60
2019-01-26T13:26:41.731Z,31.97
2019-01-26T13:29:11.485Z,26.13
2019-01-26T13:31:41.223Z,29.07
2019-01-26T13:34:10.895Z,23.65
2019-01-26T13:36:40.579Z,25.30
2019-01-26T13:39:10.527Z,23.57
2019-01-26T13:41:40.283Z,25.90
2019-01-26T13:44:09.983Z,28.95
2019-01-26T13:46:39.660Z,29.07
2019-01-26T13:49:09.339Z,28.37
2019-01-26T13:51:39.013Z,29.57
2019-01-26T13:54:08.786Z,29.17
2019-01-26T13:56:38.462Z,27.53
2019-01-26T13:59:08.129Z,26.30
2019-01-26T14:01:37.797Z,26.97
2019-01-26T14:04:07.546Z,31.07
2019-01-26T14:06:38.267Z,26.93
2019-01-26T14:09:09.027Z,26.87
2019-01-26T14:11:38.767Z,29.17
2019-01-26T14:14:08.531Z,29.43
2019-01-26T14:16:38.385Z,27.77
2019-01-26T14:19:08.078Z,33.50
2019-01-26T14:21:37.757Z,26.33
2019-01-26T14:24:07.432Z,31.63
2019-01-26T14:26:37.122Z,25.47
2019-01-26T14:29:06.787Z,28.03
2019-01-26T14:31:36.543Z,27.63
2019-01-26T14:34:06.241Z,22.10
2019-01-26T14:36:35.953Z,26.87
2019-01-26T14:39:08.797Z,24.77
2019-01-26T14:41:38.489Z,23.47
2019-01-26T14:44:09.123Z,19.90
2019-01-26T14:46:38.805Z,19.57
2019-01-26T14:49:08.476Z,20.53
2019-01-26T14:51:38.151Z,20.47
2019-01-26T14:54:08.848Z,18.80
2019-01-26T14:56:38.599Z,16.97
2019-01-26T14:59:08.283Z,18.17
2019-01-26T15:01:37.999Z,16.60
2019-01-26T15:04:07.679Z,15.63
2019-01-26T15:06:37.435Z,14.93
2019-01-26T15:09:09.297Z,15.93
2019-01-26T15:11:39.049Z,14.53
2019-01-26T15:14:08.726Z,12.13
2019-01-26T15:16:38.557Z,15.53
2019-01-26T15:19:08.198Z,13.80
2019-01-26T15:21:37.877Z,14.90
2019-01-26T15:24:07.621Z,13.87
2019-01-26T15:26:37.288Z,12.40
2019-01-26T15:29:07.041Z,14.17
2019-01-26T15:31:36.699Z,11.33
2019-01-26T15:34:06.630Z,8.93
2019-01-26T15:36:36.370Z,10.97
2019-01-26T15:39:08.287Z,8.33
2019-01-26T15:41:37.945Z,9.37
2019-01-26T15:44:07.606Z,11.20
2019-01-26T15:46:37.269Z,7.90
2019-01-26T15:49:06.927Z,9.37
2019-01-26T15:51:36.587Z,9.27
2019-01-26T15:54:06.332Z,7.77
2019-01-26T15:56:36.067Z,11.10
2019-01-26T15:59:05.877Z,9.80
2019-01-26T16:01:50.096Z,13.60
2019-01-26T16:04:19.795Z,11.63
2019-01-26T16:06:49.560Z,13.30
2019-01-26T16:09:19.244Z,13.07
2019-01-26T16:11:49.260Z,14.53
2019-01-26T16:14:18.960Z,14.10
2019-01-26T16:16:48.600Z,13.77
2019-01-26T16:19:18.276Z,13.07
2019-01-26T16:21:47.932Z,14.47
2019-01-26T16:24:17.609Z,14.50
2019-01-26T16:26:47.306Z,15.80
2019-01-26T16:29:16.972Z,17.50
2019-01-26T16:31:46.641Z,17.47
2019-01-26T16:34:16.320Z,17.43
2019-01-26T16:36:46.055Z,20.57
2019-01-26T16:39:15.804Z,19.23
2019-01-26T16:41:45.463Z,17.53
2019-01-26T16:44:15.133Z,17.67
2019-01-26T16:46:44.816Z,17.63
2019-01-26T16:49:14.512Z,16.82
2019-01-26T16:51:44.184Z,18.37
2019-01-26T16:54:13.855Z,16.60
2019-01-26T16:56:48.672Z,18.83
2019-01-26T16:59:19.797Z,18.77
2019-01-26T17:02:07.265Z,18.07
2019-01-26T17:04:36.955Z,19.33
2019-01-26T17:07:06.724Z,18.37
2019-01-26T17:09:36.465Z,20.27
2019-01-26T17:12:07.153Z,22.00
2019-01-26T17:14:37.081Z,20.70
2019-01-26T17:17:06.836Z,20.50
2019-01-26T17:19:36.575Z,17.97
2019-01-26T17:22:06.858Z,21.20
2019-01-26T17:24:36.723Z,17.20
2019-01-26T17:27:06.597Z,19.33
2019-01-26T17:29:36.283Z,19.83
2019-01-26T17:32:06.779Z,19.90
2019-01-26T17:34:36.593Z,18.60
2019-01-26T17:37:06.360Z,19.80
2019-01-26T17:39:36.042Z,18.33
2019-01-26T17:42:06.036Z,19.87
2019-01-26T17:44:35.723Z,17.23
2019-01-26T17:47:05.612Z,16.85
2019-01-26T17:49:35.551Z,20.68
2019-01-26T17:52:07.428Z,19.10
2019-01-26T17:54:37.101Z,16.13
2019-01-26T17:57:06.787Z,19.03
2019-01-26T17:59:36.772Z,14.20
2019-01-26T18:02:06.604Z,15.07
2019-01-26T18:04:36.491Z,14.90
2019-01-26T18:07:06.487Z,15.07
2019-01-26T18:09:36.258Z,16.67
2019-01-26T18:12:06.208Z,14.70
2019-01-26T18:14:35.973Z,13.97
2019-01-26T18:17:05.962Z,16.07
2019-01-26T18:19:35.642Z,17.80
2019-01-26T18:22:05.638Z,16.67
2019-01-26T18:24:35.388Z,16.43
2019-01-26T18:27:05.185Z,15.97
2019-01-26T18:29:34.860Z,18.07
2019-01-26T18:32:05.888Z,18.15
2019-01-26T18:34:35.874Z,20.57
2019-01-26T18:37:05.939Z,17.83
2019-01-26T18:39:35.679Z,17.90
2019-01-26T18:42:05.503Z,19.27
2019-01-26T18:44:35.473Z,17.50
2019-01-26T18:47:05.951Z,20.65
2019-01-26T18:49:35.890Z,21.80
2019-01-26T18:52:05.845Z,17.93
2019-01-26T18:54:35.554Z,19.40
2019-01-26T18:57:05.732Z,22.25
2019-01-26T18:59:35.683Z,20.53
2019-01-26T19:02:05.556Z,20.17
2019-01-26T19:04:42.087Z,17.90
2019-01-26T19:07:12.015Z,19.03
2019-01-26T19:09:42.559Z,21.33
2019-01-26T19:12:12.549Z,20.88
2019-01-26T19:14:42.236Z,19.70
2019-01-26T19:17:11.914Z,20.27
2019-01-26T19:19:41.608Z,20.20
2019-01-26T19:22:12.519Z,19.77
2019-01-26T19:24:42.210Z,23.40
2019-01-26T19:27:11.957Z,20.20
2019-01-26T19:29:42.628Z,21.20
2019-01-26T19:32:12.556Z,22.67
2019-01-26T19:34:42.371Z,19.80
2019-01-26T19:37:12.193Z,20.92
2019-01-26T19:39:41.877Z,20.20
2019-01-26T19:42:11.552Z,24.10
2019-01-26T19:44:41.244Z,23.17
2019-01-26T19:47:10.922Z,20.20
2019-01-26T19:49:40.591Z,21.93
2019-01-26T19:52:10.347Z,19.95
2019-01-26T19:54:40.088Z,22.07
2019-01-26T19:57:09.833Z,21.97
2019-01-26T19:59:40.503Z,21.17
2019-01-26T20:02:10.317Z,24.13
2019-01-26T20:04:40.056Z,19.10
2019-01-26T20:07:09.876Z,21.47
2019-01-26T20:09:39.768Z,21.57
2019-01-26T20:12:09.589Z,18.77
2019-01-26T20:14:39.262Z,19.00
2019-01-26T20:17:09.027Z,17.13
2019-01-26T20:19:39.013Z,18.17
2019-01-26T20:22:08.769Z,19.20
2019-01-26T20:24:38.448Z,15.50
2019-01-26T20:27:09.045Z,19.33
2019-01-26T20:29:39.023Z,20.47
2019-01-26T20:32:08.792Z,18.77
2019-01-26T20:34:38.484Z,17.43
2019-01-26T20:37:08.217Z,19.97
2019-01-26T20:39:37.900Z,16.75
2019-01-26T20:42:07.650Z,19.27
2019-01-26T20:44:37.330Z,16.30
2019-01-26T20:47:07.159Z,18.13
2019-01-26T20:49:36.836Z,18.17
2019-01-26T20:52:06.657Z,17.37
2019-01-26T20:54:37.475Z,17.33
2019-01-26T20:57:07.292Z,16.27
2019-01-26T20:59:37.049Z,16.57
2019-01-26T21:02:08.695Z,16.90
2019-01-26T21:04:38.363Z,16.80
2019-01-26T21:07:08.120Z,16.00
2019-01-26T21:09:37.801Z,17.07
2019-01-26T21:12:07.477Z,19.30
2019-01-26T21:14:37.154Z,16.07
2019-01-26T21:17:06.910Z,15.10
2019-01-26T21:19:37.644Z,16.63
2019-01-26T21:22:07.325Z,17.60
2019-01-26T21:24:37.006Z,15.10
2019-01-26T21:27:06.855Z,13.93
2019-01-26T21:29:36.517Z,14.40
2019-01-26T21:32:06.361Z,14.63
2019-01-26T21:34:36.033Z,14.63
2019-01-26T21:37:05.788Z,12.77
2019-01-26T21:39:35.463Z,13.27
2019-01-26T21:42:05.624Z,13.67
2019-01-26T21:44:35.308Z,12.60
2019-01-26T21:47:05.575Z,12.47
2019-01-26T21:49:35.264Z,11.97
2019-01-26T21:52:05.490Z,11.77
2019-01-26T21:54:35.503Z,11.67
2019-01-26T21:57:05.634Z,11.95
2019-01-26T21:59:35.338Z,11.77
2019-01-26T22:02:05.762Z,11.37
2019-01-26T22:04:35.456Z,11.93
2019-01-26T22:07:05.221Z,11.83
2019-01-26T22:09:34.912Z,11.63
2019-01-26T22:12:05.630Z,12.07
2019-01-26T22:14:35.676Z,11.30
2019-01-26T22:17:05.397Z,11.80
2019-01-26T22:19:35.073Z,11.13
2019-01-26T22:22:04.988Z,11.37
2019-01-26T22:24:34.661Z,11.57
2019-01-26T22:27:04.494Z,11.13
2019-01-26T22:29:34.179Z,11.07
2019-01-26T22:32:04.364Z,11.60
2019-01-26T22:34:34.044Z,10.77
2019-01-26T22:37:03.766Z,12.43
2019-01-26T22:39:33.511Z,12.10
2019-01-26T22:42:03.209Z,13.13
2019-01-26T22:44:32.884Z,12.47
2019-01-26T22:47:02.556Z,12.93
2019-01-26T22:49:32.268Z,13.30
2019-01-26T22:52:01.946Z,12.60
2019-01-26T22:54:31.612Z,13.37
2019-01-26T22:57:01.287Z,13.20
2019-01-26T22:59:30.986Z,13.20
2019-01-26T23:02:01.058Z,12.63
2019-01-26T23:04:55.735Z,15.33
2019-01-26T23:07:35.606Z,13.93
2019-01-26T23:10:45.459Z,14.43
2019-01-26T23:14:03.911Z,12.33
2019-01-26T23:17:10.702Z,12.47
2019-01-26T23:20:17.405Z,14.17
2019-01-26T23:23:19.453Z,13.72
2019-01-26T23:26:10.950Z,12.97
2019-01-26T23:29:27.762Z,13.77
2019-01-26T23:31:57.436Z,11.90
2019-01-26T23:34:27.182Z,12.30
2019-01-26T23:36:56.852Z,12.37
2019-01-26T23:39:26.669Z,11.70
2019-01-26T23:41:56.499Z,11.33
2019-01-26T23:44:26.171Z,10.67
2019-01-26T23:46:55.856Z,10.80
2019-01-26T23:49:25.527Z,10.73
2019-01-26T23:51:55.194Z,10.07
2019-01-26T23:54:24.939Z,10.63
2019-01-26T23:56:54.677Z,8.53
2019-01-26T23:59:24.336Z,9.77
